Time;durP1;ratioP1;P1;durP2;ratioP2;P2;SDS_P1;SDS_P2;PMS_P1;PMS_P2;Temp;Humidity;BMP_temperature;BMP_pressure;BME280_temperature;BME280_humidity;BME280_pressure;Samples;Min_cycle;Max_cycle;Signal;HPM_P1;HPM_P2
2022/08/07 00:01:05;;;;;;;3.90;2.55;;;13.50;99.90;;;;;;5085001;28;20036;-61
2022/08/07 00:03:31;;;;;;;6.32;2.60;;;13.50;99.90;;;;;;5086902;28;20531;-61
2022/08/07 00:05:57;;;;;;;4.65;2.90;;;13.50;99.90;;;;;;5073697;28;20027;-61
2022/08/07 00:08:23;;;;;;;6.35;3.00;;;13.50;99.90;;;;;;5075715;28;20044;-61
2022/08/07 00:10:49;;;;;;;9.55;2.95;;;13.60;99.90;;;;;;5074684;28;20093;-61
2022/08/07 00:13:16;;;;;;;5.13;2.50;;;13.60;99.90;;;;;;5074172;28;20024;-61
2022/08/07 00:15:42;;;;;;;3.50;2.30;;;13.50;99.90;;;;;;5079131;28;20354;-61
2022/08/07 00:18:08;;;;;;;6.65;2.80;;;13.50;99.90;;;;;;5083528;28;20062;-61
2022/08/07 00:20:35;;;;;;;7.68;2.70;;;13.50;99.90;;;;;;5077896;28;20051;-61
2022/08/07 00:23:01;;;;;;;3.83;2.90;;;13.50;99.90;;;;;;5074082;28;20105;-61
2022/08/07 00:25:27;;;;;;;3.35;2.40;;;13.50;99.90;;;;;;5072616;28;20029;-61
2022/08/07 00:27:52;;;;;;;6.05;2.85;;;13.50;99.90;;;;;;5076462;28;20048;-61
2022/08/07 00:30:18;;;;;;;5.80;2.60;;;13.50;99.90;;;;;;5090258;28;20144;-62
2022/08/07 00:32:48;;;;;;;4.28;2.72;;;13.60;99.90;;;;;;5089164;28;21650;-61
2022/08/07 00:35:15;;;;;;;4.90;2.90;;;13.60;99.90;;;;;;5082328;28;20116;-61
2022/08/07 00:37:40;;;;;;;5.18;2.63;;;13.70;99.90;;;;;;5093182;28;20104;-62
2022/08/07 00:40:06;;;;;;;3.58;2.70;;;13.70;99.90;;;;;;5095836;28;20043;-62
2022/08/07 00:42:33;;;;;;;4.97;2.80;;;13.70;99.90;;;;;;5087200;28;20385;-62
2022/08/07 00:44:58;;;;;;;4.60;2.97;;;13.70;99.90;;;;;;5071652;28;20112;-61
2022/08/07 00:47:24;;;;;;;3.20;2.65;;;13.70;99.90;;;;;;5086518;28;20182;-61
2022/08/07 00:49:50;;;;;;;4.38;2.55;;;13.70;99.90;;;;;;5083555;28;20206;-61
2022/08/07 00:52:15;;;;;;;6.32;2.92;;;13.70;99.90;;;;;;5086133;28;20114;-61
2022/08/07 00:54:41;;;;;;;5.15;2.60;;;13.70;99.90;;;;;;5089857;28;20029;-61
2022/08/07 00:57:08;;;;;;;3.63;2.55;;;13.70;99.90;;;;;;5083082;28;20091;-61
2022/08/07 00:59:36;;;;;;;4.93;2.88;;;13.70;99.90;;;;;;5090971;28;20111;-61
2022/08/07 01:02:04;;;;;;;5.95;2.63;;;13.70;99.90;;;;;;5088069;28;20529;-62
2022/08/07 01:04:30;;;;;;;3.42;2.47;;;13.70;99.90;;;;;;5090524;28;20734;-61
2022/08/07 01:06:56;;;;;;;4.05;2.75;;;13.70;99.90;;;;;;5086524;28;20066;-62
2022/08/07 01:09:22;;;;;;;8.15;2.88;;;13.70;99.90;;;;;;5074032;28;20032;-61
2022/08/07 01:11:50;;;;;;;3.33;2.40;;;13.70;99.90;;;;;;5072941;28;20096;-61
2022/08/07 01:14:17;;;;;;;3.90;2.63;;;13.80;99.90;;;;;;5080118;28;20028;-61
2022/08/07 01:16:43;;;;;;;3.47;2.53;;;13.70;99.90;;;;;;5088432;28;20031;-61
2022/08/07 01:19:10;;;;;;;5.90;2.47;;;13.70;99.90;;;;;;5075505;28;20374;-61
2022/08/07 01:21:36;;;;;;;7.18;2.40;;;13.70;99.90;;;;;;5072348;28;20378;-62
2022/08/07 01:24:03;;;;;;;3.78;2.40;;;13.70;99.90;;;;;;5082408;28;20015;-61
2022/08/07 01:26:29;;;;;;;4.68;2.72;;;13.70;99.90;;;;;;5084760;28;20036;-62
2022/08/07 01:28:55;;;;;;;6.20;2.67;;;13.70;99.90;;;;;;5084894;28;20127;-61
2022/08/07 01:31:30;;;;;;;3.92;2.50;;;13.70;99.90;;;;;;5070222;28;20238;-61
2022/08/07 01:33:59;;;;;;;5.13;2.50;;;13.70;99.90;;;;;;5071535;28;20124;-61
2022/08/07 01:36:27;;;;;;;4.35;2.40;;;13.60;99.90;;;;;;5069040;28;20090;-61
2022/08/07 01:38:53;;;;;;;7.70;2.80;;;13.60;99.90;;;;;;5073142;28;20097;-61
2022/08/07 01:41:19;;;;;;;3.33;2.50;;;13.60;99.90;;;;;;5088257;28;20040;-61
2022/08/07 01:43:46;;;;;;;3.75;2.58;;;13.50;99.90;;;;;;5073291;28;20500;-61
2022/08/07 01:46:13;;;;;;;4.65;2.63;;;13.50;99.90;;;;;;5076608;28;20394;-61
2022/08/07 01:48:43;;;;;;;5.75;3.00;;;13.50;99.90;;;;;;5088132;28;20456;-61
2022/08/07 01:51:13;;;;;;;4.13;3.10;;;13.50;99.90;;;;;;5073543;28;20112;-61
2022/08/07 01:53:43;;;;;;;4.32;2.95;;;13.30;99.90;;;;;;5085846;28;20043;-61
2022/08/07 01:56:29;;;;;;;;;;;13.30;99.90;;;;;;5080214;28;20032;-61
2022/08/07 01:59:14;;;;;;;3.20;2.63;;;13.20;99.90;;;;;;5080573;28;20390;-62
2022/08/07 02:01:48;;;;;;;5.80;2.55;;;13.20;99.90;;;;;;5088500;28;20027;-61
2022/08/07 02:04:31;;;;;;;4.38;2.80;;;13.00;99.90;;;;;;5087406;28;20020;-61
2022/08/07 02:06:59;;;;;;;5.57;2.40;;;13.00;99.90;;;;;;5083170;28;20411;-61
2022/08/07 02:09:27;;;;;;;5.68;2.47;;;13.10;99.90;;;;;;5071308;28;20181;-61
2022/08/07 02:11:55;;;;;;;4.70;2.53;;;13.20;99.90;;;;;;5086952;28;20031;-61
2022/08/07 02:14:22;;;;;;;3.50;2.65;;;13.20;99.90;;;;;;5072457;28;20047;-61
2022/08/07 02:16:51;;;;;;;3.88;2.33;;;13.30;99.90;;;;;;5074355;28;20077;-61
2022/08/07 02:19:17;;;;;;;3.10;2.20;;;13.40;99.90;;;;;;5078237;28;20057;-61
2022/08/07 02:21:44;;;;;;;7.03;2.28;;;13.30;99.90;;;;;;5069072;28;20500;-61
2022/08/07 02:24:11;;;;;;;4.05;2.13;;;13.30;99.90;;;;;;5082120;28;20687;-61
2022/08/07 02:26:38;;;;;;;3.58;2.30;;;13.40;99.90;;;;;;5076797;28;20039;-61
2022/08/07 02:29:07;;;;;;;3.58;2.20;;;13.50;99.90;;;;;;5080127;28;20547;-61
2022/08/07 02:31:33;;;;;;;4.82;3.13;;;13.50;99.90;;;;;;5076598;28;21022;-61
2022/08/07 02:34:02;;;;;;;3.78;2.45;;;13.50;99.90;;;;;;5086899;28;20073;-62
2022/08/07 02:36:29;;;;;;;2.70;2.35;;;13.50;99.90;;;;;;5084740;28;20020;-61
2022/08/07 02:39:00;;;;;;;2.72;2.30;;;13.40;99.90;;;;;;5095037;28;20023;-61
2022/08/07 02:41:27;;;;;;;2.78;2.22;;;13.40;99.90;;;;;;5086650;28;20028;-61
2022/08/07 02:43:54;;;;;;;4.25;2.42;;;13.40;99.90;;;;;;5091314;28;20031;-62
2022/08/07 02:46:23;;;;;;;3.67;2.00;;;13.40;99.90;;;;;;5093728;28;20533;-62
2022/08/07 02:48:49;;;;;;;3.63;2.03;;;13.30;99.90;;;;;;5097656;28;20039;-62
2022/08/07 02:51:18;;;;;;;2.40;2.17;;;13.40;99.90;;;;;;5094759;28;20044;-61
2022/08/07 02:53:49;;;;;;;3.53;2.20;;;13.40;99.90;;;;;;5081543;28;20028;-61
2022/08/07 02:56:17;;;;;;;;;;;13.40;99.90;;;;;;5086156;28;20111;-62
2022/08/07 02:58:44;;;;;;;5.15;2.30;;;13.40;99.90;;;;;;5091743;28;20358;-61
2022/08/07 03:01:10;;;;;;;5.32;2.03;;;13.50;99.90;;;;;;5082162;28;20119;-61
2022/08/07 03:03:37;;;;;;;4.50;2.50;;;13.50;99.90;;;;;;5082056;28;20088;-61
2022/08/07 03:06:03;;;;;;;2.83;2.17;;;13.50;99.90;;;;;;5088824;28;20366;-61
2022/08/07 03:08:29;;;;;;;3.03;2.20;;;13.50;99.90;;;;;;5082247;28;20051;-62
2022/08/07 03:10:56;;;;;;;4.95;2.20;;;13.40;99.90;;;;;;5073671;28;20118;-61
2022/08/07 03:13:22;;;;;;;5.53;2.40;;;13.50;99.90;;;;;;5088543;28;20027;-61
2022/08/07 03:15:49;;;;;;;3.50;2.40;;;13.50;99.90;;;;;;5079143;28;20037;-61
2022/08/07 03:18:16;;;;;;;2.80;2.38;;;13.50;99.90;;;;;;5091055;28;20044;-61
2022/08/07 03:20:42;;;;;;;4.20;2.22;;;13.50;99.90;;;;;;5090814;28;20032;-61
2022/08/07 03:23:08;;;;;;;5.82;3.00;;;13.50;99.90;;;;;;5093842;28;20032;-61
2022/08/07 03:25:38;;;;;;;7.28;2.38;;;13.50;99.90;;;;;;5089969;28;20028;-61
2022/08/07 03:28:06;;;;;;;3.10;2.10;;;13.50;99.90;;;;;;5090567;28;20032;-61
2022/08/07 03:30:32;;;;;;;3.25;2.25;;;13.50;99.90;;;;;;5082434;28;20407;-61
2022/08/07 03:33:00;;;;;;;3.70;2.47;;;13.50;99.90;;;;;;5088947;28;20037;-61
2022/08/07 03:35:29;;;;;;;3.22;2.70;;;13.50;99.90;;;;;;5077778;28;20032;-61
2022/08/07 03:37:58;;;;;;;2.88;2.45;;;13.50;99.90;;;;;;5082029;28;20173;-61
2022/08/07 03:40:25;;;;;;;3.75;2.45;;;13.40;99.90;;;;;;5092075;28;20132;-61
2022/08/07 03:42:51;;;;;;;5.38;2.50;;;13.40;99.90;;;;;;5091431;28;20028;-61
2022/08/07 03:45:22;;;;;;;3.83;2.45;;;13.40;99.90;;;;;;5088414;28;20039;-62
2022/08/07 03:47:49;;;;;;;4.32;2.28;;;13.50;99.90;;;;;;5090335;28;20073;-62
2022/08/07 03:50:19;;;;;;;5.72;2.40;;;13.50;99.90;;;;;;5090000;28;20039;-62
2022/08/07 03:52:47;;;;;;;3.63;2.70;;;13.50;99.90;;;;;;5081715;28;20032;-61
2022/08/07 03:55:13;;;;;;;5.63;2.63;;;13.40;99.90;;;;;;5089321;28;20273;-60
2022/08/07 03:57:40;;;;;;;4.50;2.40;;;13.30;99.90;;;;;;5077934;28;20024;-62
2022/08/07 04:00:07;;;;;;;3.97;2.80;;;13.40;99.90;;;;;;5075539;27;20031;-61
2022/08/07 04:02:33;;;;;;;6.20;2.97;;;13.40;99.90;;;;;;5081918;28;20036;-61
2022/08/07 04:04:59;;;;;;;3.00;2.30;;;13.30;99.90;;;;;;5082904;28;20382;-61
2022/08/07 04:07:25;;;;;;;4.15;2.70;;;13.30;99.90;;;;;;5083599;28;20154;-61
2022/08/07 04:09:51;;;;;;;4.20;2.63;;;13.30;99.90;;;;;;5085867;28;20441;-61
2022/08/07 04:12:17;;;;;;;4.32;2.90;;;13.30;99.90;;;;;;5077586;28;20032;-61
2022/08/07 04:14:44;;;;;;;3.40;2.70;;;13.30;99.90;;;;;;5084918;28;20489;-61
2022/08/07 04:17:10;;;;;;;4.05;2.70;;;13.20;99.90;;;;;;5080527;28;20064;-61
2022/08/07 04:19:40;;;;;;;7.28;2.80;;;13.20;99.90;;;;;;5079161;28;20064;-61
2022/08/07 04:22:05;;;;;;;4.53;2.90;;;13.20;99.90;;;;;;5079105;28;20392;-61
2022/08/07 04:24:32;;;;;;;4.80;3.10;;;13.20;99.90;;;;;;5083957;28;20048;-61
2022/08/07 04:27:01;;;;;;;6.05;3.00;;;13.10;99.90;;;;;;5083149;28;20477;-61
2022/08/07 04:29:27;;;;;;;5.28;2.60;;;13.10;99.90;;;;;;5083540;28;20035;-62
2022/08/07 04:31:53;;;;;;;4.78;2.88;;;13.10;99.90;;;;;;5091166;28;20032;-61
2022/08/07 04:34:21;;;;;;;3.67;2.95;;;13.00;99.90;;;;;;5081078;28;20092;-61
2022/08/07 04:36:47;;;;;;;3.90;2.78;;;13.10;99.90;;;;;;5087697;28;20055;-61
2022/08/07 04:39:13;;;;;;;4.47;2.90;;;13.10;99.90;;;;;;5089040;28;20063;-61
2022/08/07 04:41:39;;;;;;;6.57;3.30;;;13.10;99.90;;;;;;5090583;28;20944;-61
2022/08/07 04:44:05;;;;;;;3.65;2.90;;;13.20;99.90;;;;;;5081603;28;20032;-61
2022/08/07 04:46:49;;;;;;;6.95;2.80;;;13.10;99.90;;;;;;5083457;28;20063;-61
2022/08/07 04:49:37;;;;;;;4.82;2.90;;;13.20;99.90;;;;;;5087100;28;20114;-61
2022/08/07 04:52:11;;;;;;;5.20;2.95;;;13.30;99.90;;;;;;5075986;28;20028;-61
2022/08/07 04:55:01;;;;;;;3.55;2.53;;;13.40;99.90;;;;;;5089103;28;20016;-61
2022/08/07 04:57:48;;;;;;;8.07;3.13;;;13.70;99.90;;;;;;5088240;28;20816;-61
2022/08/07 05:00:18;;;;;;;4.88;2.72;;;14.00;99.90;;;;;;5086038;28;20059;-61
2022/08/07 05:02:46;;;;;;;3.80;2.60;;;14.20;99.90;;;;;;5092113;28;20027;-61
2022/08/07 05:05:23;;;;;;;6.40;3.22;;;14.30;99.90;;;;;;5090510;28;20039;-61
2022/08/07 05:08:03;;;;;;;5.72;3.00;;;14.50;99.90;;;;;;5079456;28;20043;-61
2022/08/07 05:10:40;;;;;;;4.30;3.27;;;14.50;99.90;;;;;;5086461;28;20028;-61
2022/08/07 05:13:13;;;;;;;5.55;3.03;;;14.60;99.90;;;;;;5088454;28;20101;-61
2022/08/07 05:15:42;;;;;;;5.68;3.10;;;14.70;99.90;;;;;;5080888;28;20087;-61
2022/08/07 05:18:22;;;;;;;3.80;2.90;;;14.70;99.90;;;;;;5085256;28;20047;-62
2022/08/07 05:20:51;;;;;;;7.22;3.20;;;14.80;99.90;;;;;;5069487;28;20124;-62
2022/08/07 05:23:24;;;;;;;6.50;3.30;;;14.90;99.90;;;;;;5077678;28;20016;-61
2022/08/07 05:25:51;;;;;;;5.30;3.40;;;15.20;99.90;;;;;;5082906;28;20588;-62
2022/08/07 05:28:18;;;;;;;5.43;2.80;;;15.40;99.90;;;;;;5071694;28;20029;-62
2022/08/07 05:30:45;;;;;;;4.07;2.85;;;15.50;99.90;;;;;;5088801;28;20032;-62
2022/08/07 05:33:16;;;;;;;9.07;2.85;;;15.40;99.90;;;;;;5089156;28;20070;-61
2022/08/07 05:35:43;;;;;;;4.25;3.03;;;15.50;99.90;;;;;;5071984;28;20037;-61
2022/08/07 05:38:10;;;;;;;5.18;2.80;;;15.70;99.90;;;;;;5087902;28;20462;-61
2022/08/07 05:40:37;;;;;;;3.15;2.40;;;15.70;99.90;;;;;;5083026;28;20467;-61
2022/08/07 05:43:03;;;;;;;3.67;2.67;;;15.70;99.90;;;;;;5087160;28;20024;-62
2022/08/07 05:45:30;;;;;;;4.05;2.80;;;15.70;99.90;;;;;;5099741;28;20063;-61
2022/08/07 05:47:57;;;;;;;9.85;2.70;;;15.90;99.90;;;;;;5089304;28;20036;-61
2022/08/07 05:50:26;;;;;;;10.25;2.65;;;16.20;99.90;;;;;;5082733;28;20036;-62
2022/08/07 05:52:52;;;;;;;5.80;3.13;;;16.30;99.90;;;;;;5080909;28;20032;-61
2022/08/07 05:55:17;;;;;;;7.05;3.83;;;16.40;99.90;;;;;;5088317;28;20043;-62
2022/08/07 05:57:46;;;;;;;5.93;2.85;;;16.40;99.90;;;;;;5083543;28;20039;-61
2022/08/07 06:00:12;;;;;;;5.20;2.95;;;16.40;99.90;;;;;;5089075;28;20024;-62
2022/08/07 06:02:39;;;;;;;4.63;3.10;;;16.40;99.90;;;;;;5081525;28;20111;-61
2022/08/07 06:05:11;;;;;;;6.75;3.10;;;16.50;99.90;;;;;;5085801;28;20505;-62
2022/08/07 06:07:38;;;;;;;4.25;2.80;;;16.60;99.90;;;;;;5072136;28;20461;-61
2022/08/07 06:10:04;;;;;;;4.70;3.35;;;16.60;99.90;;;;;;5088135;28;20032;-61
2022/08/07 06:12:30;;;;;;;7.05;3.15;;;16.60;99.90;;;;;;5078010;28;20090;-61
2022/08/07 06:14:57;;;;;;;5.80;3.28;;;16.70;99.90;;;;;;5074850;28;20063;-62
2022/08/07 06:17:23;;;;;;;5.22;3.13;;;16.90;99.90;;;;;;5070173;28;20136;-62
2022/08/07 06:19:50;;;;;;;5.35;3.20;;;17.00;99.90;;;;;;5080218;28;20143;-62
2022/08/07 06:22:16;;;;;;;4.75;3.35;;;17.10;99.90;;;;;;5078315;28;20033;-62
2022/08/07 06:24:42;;;;;;;8.65;3.63;;;17.20;99.90;;;;;;5086799;28;20255;-62
2022/08/07 06:27:08;;;;;;;4.32;3.38;;;17.30;99.90;;;;;;5104980;27;20047;-62
2022/08/07 06:29:34;;;;;;;4.72;3.58;;;17.30;99.90;;;;;;5060811;28;20719;-62
2022/08/07 06:32:00;;;;;;;4.85;3.65;;;17.50;99.90;;;;;;5068913;28;20036;-63
2022/08/07 06:34:26;;;;;;;14.05;3.65;;;17.60;99.90;;;;;;5074651;28;20041;-62
2022/08/07 06:36:53;;;;;;;8.32;3.47;;;17.60;99.90;;;;;;5064977;28;20024;-62
2022/08/07 06:39:19;;;;;;;6.68;3.47;;;17.50;99.90;;;;;;5059844;28;20028;-62
2022/08/07 06:41:52;;;;;;;5.57;3.30;;;17.60;99.90;;;;;;5059261;28;20667;-62
2022/08/07 06:44:20;;;;;;;8.25;3.17;;;17.70;99.90;;;;;;5085782;28;20028;-62
2022/08/07 06:46:45;;;;;;;5.43;3.17;;;17.80;99.90;;;;;;5089395;28;20055;-62
2022/08/07 06:49:16;;;;;;;5.65;3.50;;;18.00;99.90;;;;;;5091094;28;20072;-63
2022/08/07 06:51:44;;;;;;;5.85;3.55;;;18.10;99.90;;;;;;5090001;28;20505;-62
2022/08/07 06:54:12;;;;;;;4.38;3.17;;;18.20;99.90;;;;;;5092495;28;20060;-62
2022/08/07 06:56:39;;;;;;;6.82;3.15;;;18.40;99.90;;;;;;5079154;28;20502;-62
2022/08/07 06:59:07;;;;;;;4.47;3.00;;;18.50;99.90;;;;;;5089328;28;20043;-61
2022/08/07 07:01:34;;;;;;;5.85;3.17;;;18.70;99.90;;;;;;5079022;28;20402;-62
2022/08/07 07:04:01;;;;;;;3.47;2.88;;;18.90;99.90;;;;;;5078572;28;20538;-61
2022/08/07 07:06:27;;;;;;;6.93;2.72;;;19.10;99.90;;;;;;5081441;28;20033;-62
2022/08/07 07:08:53;;;;;;;3.65;2.55;;;19.10;99.90;;;;;;5071382;28;20032;-62
2022/08/07 07:11:19;;;;;;;5.20;2.92;;;19.20;99.80;;;;;;5082304;28;20039;-61
2022/08/07 07:13:50;;;;;;;3.92;3.10;;;19.30;98.90;;;;;;5088581;28;20027;-62
2022/08/07 07:16:20;;;;;;;3.65;2.53;;;19.40;99.20;;;;;;5087645;28;20028;-61
2022/08/07 07:19:00;;;;;;;3.92;2.33;;;19.60;98.70;;;;;;5083637;28;20048;-62
2022/08/07 07:21:31;;;;;;;4.32;2.15;;;19.70;97.30;;;;;;5080486;28;20127;-61
2022/08/07 07:23:58;;;;;;;3.70;1.92;;;19.80;96.90;;;;;;5083796;28;20115;-62
2022/08/07 07:26:26;;;;;;;3.58;1.98;;;19.90;95.70;;;;;;5079392;28;21375;-62
2022/08/07 07:28:56;;;;;;;2.15;1.52;;;20.10;94.80;;;;;;5088391;28;20056;-62
2022/08/07 07:31:39;;;;;;;3.05;1.65;;;20.30;92.30;;;;;;5080548;28;20033;-62
2022/08/07 07:34:08;;;;;;;3.00;2.30;;;20.40;92.30;;;;;;5075210;28;20756;-62
2022/08/07 07:36:37;;;;;;;2.97;1.65;;;20.50;93.20;;;;;;5090616;28;20031;-62
2022/08/07 07:39:04;;;;;;;3.40;1.80;;;20.60;91.50;;;;;;5089591;28;20039;-62
2022/08/07 07:41:33;;;;;;;2.33;1.98;;;20.60;91.50;;;;;;5094918;28;20466;-62
2022/08/07 07:44:00;;;;;;;2.70;1.50;;;20.70;92.10;;;;;;5103732;28;20023;-62
2022/08/07 07:46:30;;;;;;;2.03;1.58;;;20.80;90.00;;;;;;5109759;28;20084;-62
2022/08/07 07:48:58;;;;;;;2.88;1.58;;;21.00;88.90;;;;;;5096317;28;20038;-62
2022/08/07 07:51:25;;;;;;;1.98;1.50;;;21.20;86.20;;;;;;5111154;28;20032;-62
2022/08/07 07:53:52;;;;;;;2.92;1.70;;;21.30;86.80;;;;;;5089873;28;20034;-62
2022/08/07 07:56:21;;;;;;;1.85;1.55;;;21.40;86.70;;;;;;5091028;28;20466;-62
2022/08/07 07:58:48;;;;;;;8.07;1.67;;;21.30;84.30;;;;;;5090244;28;20131;-62
2022/08/07 08:01:16;;;;;;;2.80;1.60;;;21.30;87.60;;;;;;5089665;28;20047;-62
2022/08/07 08:03:42;;;;;;;1.88;1.25;;;21.50;85.20;;;;;;5090503;28;20120;-62
2022/08/07 08:06:09;;;;;;;3.55;1.63;;;21.50;84.50;;;;;;5090836;28;20556;-63
2022/08/07 08:08:36;;;;;;;3.50;1.38;;;21.50;83.60;;;;;;5088783;28;20692;-61
2022/08/07 08:11:04;;;;;;;2.33;1.40;;;21.50;84.50;;;;;;5090663;28;20120;-62
2022/08/07 08:13:30;;;;;;;1.90;1.40;;;21.70;85.80;;;;;;5089074;28;20090;-62
2022/08/07 08:16:00;;;;;;;2.85;1.40;;;21.70;79.90;;;;;;5090244;28;20063;-62
2022/08/07 08:18:28;;;;;;;1.98;1.33;;;21.50;78.80;;;;;;5090487;28;20052;-63
2022/08/07 08:20:59;;;;;;;2.10;1.40;;;21.40;80.90;;;;;;5089117;28;20098;-62
2022/08/07 08:28:58;;;;;;;1.58;1.30;;;21.30;77.20;;;;;;5074469;28;20039;-62
2022/08/07 08:31:32;;;;;;;2.55;1.20;;;21.50;77.40;;;;;;5090428;28;20055;-62
2022/08/07 08:34:00;;;;;;;4.40;1.30;;;21.60;75.00;;;;;;5089092;28;20036;-62
2022/08/07 08:36:30;;;;;;;3.60;1.40;;;21.60;75.60;;;;;;5089152;28;20028;-62
2022/08/07 08:39:00;;;;;;;1.42;1.00;;;21.80;75.40;;;;;;5075548;28;20123;-62
2022/08/07 08:41:25;;;;;;;2.45;0.90;;;21.80;70.50;;;;;;5069654;28;20044;-62
2022/08/07 08:44:07;;;;;;;2.55;1.10;;;21.70;71.50;;;;;;5069603;28;20108;-62
2022/08/07 08:46:49;;;;;;;4.57;1.00;;;21.60;70.90;;;;;;5069315;28;20029;-63
2022/08/07 08:49:37;;;;;;;6.00;1.20;;;21.70;70.80;;;;;;5087748;28;20032;-62
2022/08/07 08:52:34;;;;;;;1.42;1.13;;;21.70;69.00;;;;;;5086629;28;20501;-62
2022/08/07 08:55:15;;;;;;;3.13;1.83;;;21.80;68.70;;;;;;5090571;28;20462;-62
2022/08/07 08:57:53;;;;;;;2.70;1.10;;;21.90;70.40;;;;;;5085408;28;20039;-63
2022/08/07 09:00:20;;;;;;;1.88;1.13;;;22.10;68.20;;;;;;5099102;28;20119;-62
2022/08/07 09:02:57;;;;;;;1.45;1.20;;;22.40;68.70;;;;;;5087431;28;20062;-62
2022/08/07 09:05:44;;;;;;;2.05;1.20;;;22.30;67.40;;;;;;5090097;28;20085;-62
2022/08/07 09:08:32;;;;;;;2.40;1.20;;;22.20;67.50;;;;;;5088527;28;20462;-61
2022/08/07 09:11:14;;;;;;;1.50;1.17;;;22.20;66.10;;;;;;5089336;28;20024;-63
2022/08/07 09:14:01;;;;;;;2.17;1.17;;;22.10;67.60;;;;;;5089165;28;20103;-62
2022/08/07 09:16:33;;;;;;;3.75;1.27;;;22.40;67.00;;;;;;5089094;28;20032;-63
2022/08/07 09:19:16;;;;;;;2.33;1.15;;;22.50;65.60;;;;;;5088577;28;20060;-62
2022/08/07 09:22:05;;;;;;;2.00;1.25;;;22.60;65.40;;;;;;5088331;28;20073;-62
2022/08/07 09:24:55;;;;;;;2.05;0.90;;;22.50;62.20;;;;;;5087773;28;20113;-62
2022/08/07 09:27:29;;;;;;;2.42;1.10;;;22.50;64.40;;;;;;5081600;28;20085;-62
2022/08/07 09:30:03;;;;;;;1.40;1.00;;;22.80;63.30;;;;;;5078855;28;20295;-61
2022/08/07 09:33:07;;;;;;;1.75;1.23;;;22.60;62.70;;;;;;5088704;28;20032;-62
2022/08/07 09:36:23;;;;;;;1.52;0.80;;;22.80;66.60;;;;;;5079837;28;20380;-62
2022/08/07 09:39:17;;;;;;;3.53;1.10;;;23.00;60.20;;;;;;5005958;28;20044;-61
2022/08/07 09:42:24;;;;;;;2.05;1.10;;;22.80;60.10;;;;;;4982661;28;20038;-62
2022/08/07 09:45:16;;;;;;;1.48;0.93;;;23.00;60.70;;;;;;5005959;28;20865;-62
2022/08/07 09:48:03;;;;;;;1.55;1.20;;;23.20;60.10;;;;;;5005159;28;20117;-62
2022/08/07 09:50:58;;;;;;;2.70;1.02;;;23.30;59.40;;;;;;5006645;28;20045;-62
2022/08/07 09:53:26;;;;;;;3.10;1.40;;;23.20;60.40;;;;;;5005502;28;20029;-61
2022/08/07 09:56:04;;;;;;;2.75;1.05;;;23.20;58.60;;;;;;5007691;28;20053;-62
2022/08/07 09:58:50;;;;;;;2.60;1.00;;;23.30;58.80;;;;;;5008076;28;20037;-62
2022/08/07 10:01:51;;;;;;;2.58;1.30;;;23.20;58.80;;;;;;5010821;28;20511;-61
2022/08/07 10:04:32;;;;;;;1.92;1.17;;;23.10;58.30;;;;;;5008570;28;20064;-62
2022/08/07 10:07:35;;;;;;;3.50;1.30;;;23.10;58.90;;;;;;5005825;28;20548;-62
2022/08/07 10:10:35;;;;;;;1.40;1.00;;;23.00;58.40;;;;;;5070805;28;20055;-62
2022/08/07 10:13:13;;;;;;;;;;;23.10;59.00;;;;;;5043394;28;20054;-62
2022/08/07 10:16:14;;;;;;;2.60;1.20;;;23.20;58.20;;;;;;5085773;28;19908;-62
2022/08/07 10:18:40;;;;;;;1.13;1.02;;;23.10;58.90;;;;;;5072051;28;20056;-62
2022/08/07 10:21:58;;;;;;;7.00;1.30;;;23.30;58.20;;;;;;5088312;28;20043;-62
2022/08/07 10:24:48;;;;;;;2.30;1.23;;;23.60;57.80;;;;;;5083834;28;20049;-62
2022/08/07 10:27:28;;;;;;;9.18;1.30;;;23.70;57.90;;;;;;5084504;28;20020;-62
2022/08/07 10:30:09;;;;;;;4.22;1.17;;;23.80;59.30;;;;;;5075321;28;20048;-62
2022/08/07 10:32:50;;;;;;;2.33;1.08;;;24.10;59.80;;;;;;5075338;28;20048;-62
2022/08/07 10:36:02;;;;;;;1.80;1.20;;;24.30;57.20;;;;;;5072329;28;20424;-62
2022/08/07 10:38:53;;;;;;;1.42;1.10;;;24.50;57.70;;;;;;5090395;28;20039;-62
2022/08/07 10:41:31;;;;;;;;;;;24.70;56.50;;;;;;5081237;28;20139;-62
2022/08/07 10:44:25;;;;;;;2.45;1.00;;;24.70;56.90;;;;;;5082722;28;19976;-62
2022/08/07 10:46:58;;;;;;;4.13;1.17;;;24.30;56.00;;;;;;5079930;28;20032;-62
2022/08/07 10:50:01;;;;;;;3.03;1.00;;;24.40;57.40;;;;;;5080353;28;20036;-62
2022/08/07 10:52:50;;;;;;;1.88;0.90;;;24.90;55.10;;;;;;5071888;28;20090;-62
2022/08/07 10:55:44;;;;;;;1.00;0.90;;;25.30;55.10;;;;;;5086274;28;20065;-62
2022/08/07 10:58:17;;;;;;;2.28;1.00;;;25.30;54.90;;;;;;5073952;28;20095;-62
2022/08/07 11:00:56;;;;;;;3.95;1.05;;;25.00;53.00;;;;;;5079040;28;20031;-62
2022/08/07 11:03:44;;;;;;;1.50;1.08;;;25.10;53.70;;;;;;5089514;28;20032;-62
2022/08/07 11:06:27;;;;;;;1.70;0.95;;;25.20;53.60;;;;;;5083735;28;20033;-61
2022/08/07 11:09:11;;;;;;;2.33;1.20;;;24.80;51.40;;;;;;5070995;28;20375;-62
2022/08/07 11:12:03;;;;;;;3.85;0.90;;;25.00;52.00;;;;;;5085629;28;20384;-61
2022/08/07 11:14:40;;;;;;;1.90;0.90;;;25.40;51.90;;;;;;5090964;28;20024;-62
2022/08/07 11:17:25;;;;;;;1.10;0.95;;;25.60;52.80;;;;;;5085732;28;20115;-62
2022/08/07 11:20:13;;;;;;;2.45;1.00;;;25.70;52.50;;;;;;5081361;28;20131;-62
2022/08/07 11:23:06;;;;;;;2.30;1.10;;;25.30;51.70;;;;;;5081167;28;20107;-62
2022/08/07 11:25:39;;;;;;;1.30;0.90;;;25.00;50.50;;;;;;5088065;28;20047;-62
2022/08/07 11:28:13;;;;;;;1.38;0.90;;;25.20;51.70;;;;;;5082652;28;20032;-62
2022/08/07 11:31:05;;;;;;;2.45;0.95;;;25.40;49.80;;;;;;5076059;28;20406;-62
2022/08/07 11:34:18;;;;;;;1.25;0.95;;;25.50;51.40;;;;;;5085097;28;20040;-63
2022/08/07 11:37:18;;;;;;;5.65;0.93;;;26.20;52.20;;;;;;5005847;28;20051;-62
2022/08/07 11:40:17;;;;;;;2.45;1.05;;;26.50;49.10;;;;;;4999409;28;20459;-62
2022/08/07 11:42:51;;;;;;;3.42;1.15;;;26.50;48.50;;;;;;5077026;28;20072;-62
2022/08/07 11:45:52;;;;;;;1.80;1.15;;;26.30;49.40;;;;;;5090563;28;20024;-63
2022/08/07 11:48:42;;;;;;;4.88;1.20;;;26.50;51.60;;;;;;5090260;28;20041;-62
2022/08/07 11:51:37;;;;;;;1.20;1.05;;;26.90;48.90;;;;;;5071283;28;20045;-62
2022/08/07 11:54:40;;;;;;;1.27;1.17;;;26.60;47.60;;;;;;5070096;28;20029;-62
2022/08/07 11:57:11;;;;;;;1.17;1.00;;;26.40;49.90;;;;;;5079302;28;20486;-62
2022/08/07 11:59:59;;;;;;;1.58;1.08;;;26.50;48.30;;;;;;5079215;28;20033;-62
2022/08/07 12:03:02;;;;;;;5.13;1.20;;;26.30;50.80;;;;;;5088767;28;20720;-62
2022/08/07 12:05:43;;;;;;;2.45;1.15;;;26.00;50.00;;;;;;5087942;28;20020;-62
2022/08/07 12:08:12;;;;;;;1.85;1.10;;;26.20;51.30;;;;;;5087433;28;20028;-62
2022/08/07 12:10:43;;;;;;;1.73;1.33;;;26.40;48.20;;;;;;5085864;28;20527;-62
2022/08/07 12:13:22;;;;;;;3.65;1.40;;;26.20;48.70;;;;;;5086218;28;20049;-63
2022/08/07 12:15:52;;;;;;;2.28;1.10;;;25.80;49.10;;;;;;5090117;28;20025;-62
2022/08/07 12:19:06;;;;;;;2.70;1.20;;;26.00;49.70;;;;;;5088942;28;20043;-62
2022/08/07 12:21:46;;;;;;;2.55;1.10;;;26.20;49.50;;;;;;5015776;28;20052;-63
2022/08/07 12:24:35;;;;;;;;;;;26.70;50.30;;;;;;5026895;28;20061;-62
2022/08/07 12:27:10;;;;;;;1.67;1.13;;;27.00;47.80;;;;;;5018330;28;20461;-62
2022/08/07 12:29:58;;;;;;;3.42;1.20;;;27.20;49.00;;;;;;5025374;28;20035;-63
2022/08/07 12:32:45;;;;;;;2.75;1.40;;;27.40;49.60;;;;;;5023355;28;20120;-62
2022/08/07 12:35:13;;;;;;;1.38;1.13;;;27.30;47.60;;;;;;5026775;28;20042;-63
2022/08/07 12:37:47;;;;;;;1.70;1.20;;;27.30;48.30;;;;;;5021663;28;20066;-62
2022/08/07 12:40:19;;;;;;;2.53;1.27;;;27.20;47.70;;;;;;5022562;28;20443;-62
2022/08/07 12:42:46;;;;;;;1.60;1.38;;;27.10;48.30;;;;;;5025440;28;20049;-63
2022/08/07 12:45:18;;;;;;;1.77;1.35;;;27.00;48.50;;;;;;5025591;28;20041;-63
2022/08/07 12:48:11;;;;;;;1.95;1.23;;;27.30;48.80;;;;;;5024622;28;20123;-62
2022/08/07 12:50:37;;;;;;;1.48;1.30;;;27.60;48.70;;;;;;5026485;28;20415;-62
2022/08/07 12:53:24;;;;;;;1.23;1.10;;;27.80;48.50;;;;;;5060996;28;20037;-62
2022/08/07 12:56:14;;;;;;;2.50;1.38;;;27.70;48.30;;;;;;5077355;28;20024;-63
2022/08/07 12:58:45;;;;;;;2.25;1.60;;;27.70;49.30;;;;;;5070558;28;20032;-62
2022/08/07 13:01:26;;;;;;;1.92;1.45;;;27.60;48.20;;;;;;5085715;28;20040;-62
2022/08/07 13:04:18;;;;;;;2.03;1.35;;;27.50;47.40;;;;;;5069112;28;20045;-62
2022/08/07 13:07:14;;;;;;;1.98;1.23;;;27.20;49.50;;;;;;5077842;28;20135;-62
2022/08/07 13:09:55;;;;;;;2.80;1.50;;;27.50;50.00;;;;;;5093300;28;20039;-61
2022/08/07 13:12:39;;;;;;;1.70;1.33;;;27.30;47.40;;;;;;5084301;28;20115;-62
2022/08/07 13:15:18;;;;;;;3.17;1.40;;;27.50;48.50;;;;;;5081674;28;20029;-62
2022/08/07 13:18:23;;;;;;;2.03;1.40;;;27.60;48.30;;;;;;5076368;28;20048;-62
2022/08/07 13:21:16;;;;;;;2.20;1.17;;;27.90;46.10;;;;;;5071725;28;20036;-62
2022/08/07 13:24:18;;;;;;;2.63;1.30;;;27.80;46.50;;;;;;5063201;28;20041;-62
2022/08/07 13:27:16;;;;;;;4.00;1.63;;;27.40;46.90;;;;;;5077713;28;20055;-62
2022/08/07 13:30:02;;;;;;;6.93;1.30;;;27.50;46.50;;;;;;5038304;28;20056;-62